createdAt,value
2022-09-07T00:00:36.470Z,15.9
2022-09-07T00:03:35.646Z,15.9
2022-09-07T00:06:35.342Z,15.8
2022-09-07T00:09:35.347Z,15.8
2022-09-07T00:12:35.363Z,15.8
2022-09-07T00:15:35.367Z,15.8
2022-09-07T00:18:35.379Z,15.8
2022-09-07T00:21:35.381Z,15.8
2022-09-07T00:24:35.390Z,15.8
2022-09-07T00:27:35.399Z,15.8
2022-09-07T00:30:35.411Z,15.7
2022-09-07T00:33:35.436Z,15.7
2022-09-07T00:36:35.437Z,15.7
2022-09-07T00:39:35.479Z,15.7
2022-09-07T00:42:35.455Z,15.7
2022-09-07T00:45:35.460Z,15.7
2022-09-07T00:48:35.486Z,15.7
2022-09-07T00:51:35.484Z,15.6
2022-09-07T00:54:35.496Z,15.6
2022-09-07T00:57:35.500Z,15.6
2022-09-07T01:00:35.507Z,15.5
2022-09-07T01:03:35.533Z,15.5
2022-09-07T01:06:35.532Z,15.5
2022-09-07T01:09:35.545Z,15.4
2022-09-07T01:12:35.551Z,15.4
2022-09-07T01:15:35.606Z,15.4
2022-09-07T01:18:35.566Z,15.4
2022-09-07T01:21:35.579Z,15.4
2022-09-07T01:24:35.587Z,15.4
2022-09-07T01:27:35.598Z,15.3
2022-09-07T01:30:35.609Z,15.3
2022-09-07T01:33:35.621Z,15.3
2022-09-07T01:36:35.621Z,15.3
2022-09-07T01:39:35.717Z,15.3
2022-09-07T01:42:35.650Z,15.2
2022-09-07T01:45:35.658Z,15.2
2022-09-07T01:48:35.668Z,15.2
2022-09-07T01:51:35.678Z,15.2
2022-09-07T01:54:35.690Z,15.2
2022-09-07T01:57:35.697Z,15.1
2022-09-07T02:00:35.708Z,15.1
2022-09-07T02:03:35.736Z,15.1
2022-09-07T02:06:35.735Z,15
2022-09-07T02:09:35.743Z,15
2022-09-07T02:12:35.745Z,14.9
2022-09-07T02:15:35.808Z,14.9
2022-09-07T02:18:35.768Z,14.9
2022-09-07T02:21:35.781Z,14.8
2022-09-07T02:24:35.790Z,14.7
2022-09-07T02:27:35.800Z,14.7
2022-09-07T02:30:35.809Z,14.7
2022-09-07T02:33:35.813Z,14.6
2022-09-07T02:36:35.820Z,14.6
2022-09-07T02:39:35.863Z,14.6
2022-09-07T02:42:35.830Z,14.5
2022-09-07T02:45:35.836Z,14.5
2022-09-07T02:48:35.853Z,14.5
2022-09-07T02:51:35.853Z,14.4
2022-09-07T02:54:35.860Z,14.4
2022-09-07T02:57:35.863Z,14.4
2022-09-07T03:00:35.884Z,14.4
2022-09-07T03:03:35.876Z,14.3
2022-09-07T03:06:35.894Z,14.3
2022-09-07T03:09:35.891Z,14.3
2022-09-07T03:12:35.901Z,14.2
2022-09-07T03:15:35.942Z,14.2
2022-09-07T03:18:35.919Z,14.2
2022-09-07T03:21:35.930Z,14.2
2022-09-07T03:24:35.931Z,14.2
2022-09-07T03:27:35.950Z,14.2
2022-09-07T03:30:36.015Z,14.1
2022-09-07T03:33:35.971Z,14.1
2022-09-07T03:36:35.961Z,14.1
2022-09-07T03:39:36.013Z,14.1
2022-09-07T03:42:35.979Z,14.1
2022-09-07T03:45:35.985Z,14
2022-09-07T03:48:35.986Z,14
2022-09-07T03:51:35.997Z,14
2022-09-07T03:54:39.399Z,14
2022-09-07T03:57:36.006Z,14
2022-09-07T04:00:36.021Z,14
2022-09-07T04:03:36.028Z,14
2022-09-07T04:06:36.031Z,13.9
2022-09-07T04:09:36.042Z,14
2022-09-07T04:12:36.046Z,14
2022-09-07T04:15:36.053Z,14
2022-09-07T04:18:36.061Z,14
2022-09-07T04:21:36.076Z,13.9
2022-09-07T04:24:36.076Z,14
2022-09-07T04:27:36.094Z,13.9
2022-09-07T04:30:36.174Z,14
2022-09-07T04:33:36.097Z,14
2022-09-07T04:36:36.109Z,14.1
2022-09-07T04:39:36.160Z,14.1
2022-09-07T04:42:36.121Z,14.1
2022-09-07T04:45:36.171Z,14.1
2022-09-07T04:48:36.142Z,14.1
2022-09-07T04:51:36.157Z,14.2
2022-09-07T04:54:36.159Z,14.3
2022-09-07T04:57:36.169Z,14.4
2022-09-07T05:00:36.183Z,14.5
2022-09-07T05:03:36.181Z,14.7
2022-09-07T05:06:36.196Z,14.8
2022-09-07T05:09:36.197Z,14.9
2022-09-07T05:12:36.209Z,15
2022-09-07T05:15:36.217Z,15.1
2022-09-07T05:18:36.223Z,15.2
2022-09-07T05:21:36.231Z,15.2
2022-09-07T05:24:36.251Z,15.3
2022-09-07T05:27:36.247Z,15.3
2022-09-07T05:36:36.266Z,15.3
2022-09-07T05:39:36.327Z,15.2
2022-09-07T05:42:36.284Z,15.1
2022-09-07T05:45:36.367Z,15
2022-09-07T05:48:36.296Z,15
2022-09-07T05:51:36.304Z,15
2022-09-07T05:54:36.313Z,14.9
2022-09-07T05:57:36.319Z,14.9
2022-09-07T06:00:36.331Z,14.9
2022-09-07T06:03:36.336Z,14.9
2022-09-07T06:06:36.348Z,14.9
2022-09-07T06:12:36.361Z,15.1
2022-09-07T06:15:36.363Z,15.2
2022-09-07T06:18:36.370Z,15.4
2022-09-07T06:21:36.380Z,15.5
2022-09-07T06:24:36.383Z,15.5
2022-09-07T06:27:36.392Z,15.6
2022-09-07T06:30:36.398Z,15.8
2022-09-07T06:33:36.414Z,16
2022-09-07T06:36:36.416Z,16.2
2022-09-07T06:39:36.518Z,16.4
2022-09-07T06:42:36.430Z,16.6
2022-09-07T06:45:36.462Z,16.9
2022-09-07T06:48:36.440Z,17
2022-09-07T06:51:36.450Z,17.1
2022-09-07T06:55:03.670Z,17.4
2022-09-07T06:57:36.462Z,17.5
2022-09-07T07:00:36.510Z,17.5
2022-09-07T07:03:36.553Z,17.4
2022-09-07T07:06:36.482Z,17.4
2022-09-07T07:09:36.495Z,17.5
2022-09-07T07:15:36.510Z,17.8
2022-09-07T07:18:36.823Z,17.8
2022-09-07T07:21:49.389Z,17.8
2022-09-07T07:24:36.522Z,18
2022-09-07T07:27:36.530Z,18.1
2022-09-07T07:30:36.530Z,18.2
2022-09-07T07:33:36.542Z,18.3
2022-09-07T07:36:36.569Z,18.4
2022-09-07T07:42:36.558Z,18.6
2022-09-07T07:46:06.282Z,18.8
2022-09-07T07:48:36.582Z,19
2022-09-07T07:54:36.608Z,19.3
2022-09-07T07:57:36.596Z,19.5
2022-09-07T08:00:50.950Z,19.8
2022-09-07T08:03:36.601Z,20
2022-09-07T08:06:36.610Z,20
2022-09-07T08:09:36.618Z,19.6
2022-09-07T08:12:36.697Z,19.1
2022-09-07T08:15:36.630Z,18.8
2022-09-07T08:18:36.632Z,18.6
2022-09-07T08:21:36.641Z,18.4
2022-09-07T08:24:36.640Z,17.7
2022-09-07T08:27:36.646Z,17.1
2022-09-07T08:30:36.680Z,16.9
2022-09-07T08:33:36.665Z,16.6
2022-09-07T08:36:36.665Z,16.6
2022-09-07T08:39:36.752Z,16.5
2022-09-07T08:42:36.686Z,16.4
2022-09-07T08:45:36.689Z,16.5
2022-09-07T08:48:36.792Z,16.6
2022-09-07T08:51:36.699Z,16.7
2022-09-07T08:54:36.704Z,16.8
2022-09-07T08:57:36.706Z,16.9
2022-09-07T09:00:36.710Z,17
2022-09-07T09:04:15.157Z,17.2
2022-09-07T09:06:36.809Z,17.5
2022-09-07T09:09:36.713Z,17.7
2022-09-07T09:12:37.771Z,18
2022-09-07T09:15:36.782Z,18.5
2022-09-07T09:18:36.727Z,18.8
2022-09-07T09:21:36.727Z,19
2022-09-07T09:24:36.763Z,19
2022-09-07T09:27:36.747Z,19
2022-09-07T09:30:36.740Z,19.1
2022-09-07T09:33:36.742Z,19.2
2022-09-07T09:36:36.748Z,19.2
2022-09-07T09:39:36.888Z,19.2
2022-09-07T09:42:36.770Z,19.2
2022-09-07T09:48:36.756Z,19.5
2022-09-07T09:54:36.764Z,19.8
2022-09-07T09:57:36.818Z,20
2022-09-07T10:01:20.501Z,20.4
2022-09-07T10:06:36.770Z,21
2022-09-07T10:09:38.048Z,21.5
2022-09-07T10:12:36.998Z,22.1
2022-09-07T10:15:40.338Z,22.6
2022-09-07T10:18:36.832Z,23.1
2022-09-07T10:21:36.817Z,23.4
2022-09-07T10:24:36.816Z,23.3
2022-09-07T10:27:36.821Z,23.2
2022-09-07T10:30:36.828Z,23.7
2022-09-07T10:33:36.836Z,24.3
2022-09-07T10:36:36.872Z,24.7
2022-09-07T10:39:36.989Z,24.2
2022-09-07T10:42:37.022Z,23.6
2022-09-07T10:45:36.880Z,23.2
2022-09-07T10:48:36.895Z,22.8
2022-09-07T10:51:36.906Z,23.2
2022-09-07T10:54:37.255Z,23.9
2022-09-07T10:57:36.923Z,24.3
2022-09-07T11:00:36.936Z,24.7
2022-09-07T11:03:37.068Z,24.9
2022-09-07T11:06:36.958Z,24.9
2022-09-07T11:09:36.972Z,24.9
2022-09-07T11:12:37.009Z,24.5
2022-09-07T11:15:37.039Z,24.1
2022-09-07T11:18:37.022Z,23.8
2022-09-07T11:22:02.000Z,23.6
2022-09-07T11:24:37.053Z,23.5
2022-09-07T11:27:37.077Z,23.5
2022-09-07T11:30:37.172Z,23.7
2022-09-07T11:33:37.110Z,23.9
2022-09-07T11:36:37.127Z,24.1
2022-09-07T11:39:37.200Z,24.3
2022-09-07T11:42:44.570Z,24.5
2022-09-07T11:45:37.195Z,24.7
2022-09-07T11:48:37.602Z,24.8
2022-09-07T11:51:37.228Z,24.8
2022-09-07T11:54:37.253Z,24.8
2022-09-07T11:57:37.267Z,24.9
2022-09-07T12:00:37.281Z,24.9
2022-09-07T12:03:37.472Z,25
2022-09-07T12:06:37.397Z,25.1
2022-09-07T12:09:37.335Z,25.3
2022-09-07T12:12:37.356Z,25.5
2022-09-07T12:15:37.438Z,25.6
2022-09-07T12:18:37.380Z,25.6
2022-09-07T12:21:37.411Z,25.6
2022-09-07T12:24:37.440Z,25.5
2022-09-07T12:27:37.444Z,25.6
2022-09-07T12:30:37.557Z,25.7
2022-09-07T12:33:37.488Z,25.8
2022-09-07T12:36:37.501Z,25.7
2022-09-07T12:39:37.591Z,25.7
2022-09-07T12:42:37.814Z,25.6
2022-09-07T12:45:37.561Z,25.6
2022-09-07T12:48:37.585Z,25.5
2022-09-07T12:54:37.616Z,25.6
2022-09-07T12:57:37.632Z,25.6
2022-09-07T13:00:37.686Z,25.6
2022-09-07T13:03:53.053Z,25.6
2022-09-07T13:09:37.714Z,25.6
2022-09-07T13:12:53.606Z,25.7
2022-09-07T13:15:37.786Z,25.7
2022-09-07T13:18:37.794Z,25.8
2022-09-07T13:21:37.792Z,25.8
2022-09-07T13:24:46.207Z,25.8
2022-09-07T13:27:37.836Z,25.8
2022-09-07T13:30:37.896Z,25.8
2022-09-07T13:33:37.883Z,25.8
2022-09-07T13:36:37.918Z,25.9
2022-09-07T13:39:37.954Z,26
2022-09-07T13:42:37.940Z,26.2
2022-09-07T13:45:38.059Z,26
2022-09-07T13:48:37.971Z,26
2022-09-07T13:51:37.999Z,26
2022-09-07T13:54:38.043Z,25.9
2022-09-07T13:57:38.040Z,25.8
2022-09-07T14:00:38.056Z,25.8
2022-09-07T14:03:38.072Z,25.7
2022-09-07T14:06:38.093Z,25.7
2022-09-07T14:09:38.118Z,25.7
2022-09-07T14:12:38.256Z,25.9
2022-09-07T14:15:38.165Z,26
2022-09-07T14:18:38.194Z,26.1
2022-09-07T14:21:38.204Z,26.2
2022-09-07T14:24:38.309Z,26.1
2022-09-07T14:27:38.312Z,26
2022-09-07T14:30:38.336Z,25.9
2022-09-07T14:33:38.268Z,25.8
2022-09-07T14:36:45.196Z,25.8
2022-09-07T14:39:38.325Z,25.7
2022-09-07T14:42:38.293Z,25.6
2022-09-07T14:45:38.351Z,25.6
2022-09-07T14:48:38.591Z,25.7
2022-09-07T14:51:38.344Z,25.9
2022-09-07T14:54:38.363Z,26
2022-09-07T14:57:38.380Z,26.1
2022-09-07T15:00:38.646Z,26.2
2022-09-07T15:03:38.412Z,26.2
2022-09-07T15:07:05.352Z,26.2
2022-09-07T15:09:38.450Z,26.2
2022-09-07T15:12:39.038Z,26.1
2022-09-07T15:15:38.477Z,26
2022-09-07T15:18:38.506Z,25.9
2022-09-07T15:21:39.635Z,25.7
2022-09-07T15:24:38.553Z,25.7
2022-09-07T15:27:38.543Z,25.5
2022-09-07T15:30:38.668Z,25.4
2022-09-07T15:33:38.688Z,25.2
2022-09-07T15:36:38.890Z,25.1
2022-09-07T15:39:38.620Z,25
2022-09-07T15:45:39.789Z,24.7
2022-09-07T15:48:38.660Z,24.7
2022-09-07T15:54:39.744Z,24.5
2022-09-07T15:58:05.448Z,24.4
2022-09-07T16:00:38.770Z,24.3
2022-09-07T16:03:38.839Z,24.2
2022-09-07T16:06:38.776Z,24.1
2022-09-07T16:09:38.789Z,24.1
2022-09-07T16:15:38.824Z,24
2022-09-07T16:18:39.204Z,23.9
2022-09-07T16:21:40.996Z,23.8
2022-09-07T16:24:38.871Z,23.7
2022-09-07T16:27:38.892Z,23.6
2022-09-07T16:30:39.051Z,23.5
2022-09-07T16:33:38.991Z,23.4
2022-09-07T16:36:38.985Z,23.3
2022-09-07T16:39:39.051Z,23.2
2022-09-07T16:42:39.002Z,23.2
2022-09-07T16:48:39.047Z,23
2022-09-07T16:51:39.659Z,22.9
2022-09-07T16:54:39.111Z,22.8
2022-09-07T17:00:39.124Z,21.8
2022-09-07T17:03:39.253Z,21.3
2022-09-07T17:06:39.151Z,20.8
2022-09-07T17:09:39.163Z,20.5
2022-09-07T17:12:39.195Z,20.2
2022-09-07T17:15:39.207Z,20.1
2022-09-07T17:21:39.226Z,19.8
2022-09-07T17:24:39.227Z,19.6
2022-09-07T17:27:40.511Z,19.5
2022-09-07T17:30:39.446Z,19.4
2022-09-07T17:33:39.241Z,19.3
2022-09-07T17:36:39.232Z,19.2
2022-09-07T17:39:39.335Z,19.1
2022-09-07T17:45:39.289Z,19
2022-09-07T17:48:39.342Z,19
2022-09-07T17:51:39.253Z,19
2022-09-07T17:54:39.255Z,19
2022-09-07T17:57:39.267Z,19
2022-09-07T18:00:39.319Z,18.9
2022-09-07T18:03:39.481Z,18.8
2022-09-07T18:06:40.270Z,18.8
2022-09-07T18:09:39.276Z,18.8
2022-09-07T18:12:39.278Z,18.7
2022-09-07T18:15:39.278Z,18.7
2022-09-07T18:18:39.284Z,18.8
2022-09-07T18:21:40.730Z,18.8
2022-09-07T18:24:39.307Z,18.8
2022-09-07T18:27:39.707Z,18.7
2022-09-07T18:30:39.287Z,18.8
2022-09-07T18:33:39.284Z,18.7
2022-09-07T18:36:39.292Z,18.7
2022-09-07T18:39:40.669Z,18.7
2022-09-07T18:42:40.495Z,18.6
2022-09-07T18:45:39.354Z,18.5
2022-09-07T18:48:39.308Z,18.5
2022-09-07T18:54:39.311Z,18.4
2022-09-07T18:57:39.323Z,18.4
2022-09-07T19:00:39.452Z,18.4
2022-09-07T19:03:39.326Z,18.4
2022-09-07T19:06:39.329Z,18.4
2022-09-07T19:09:39.334Z,18.4
2022-09-07T19:12:42.637Z,18.4
2022-09-07T19:15:39.347Z,18.3
2022-09-07T19:18:39.380Z,18.3
2022-09-07T19:21:39.349Z,18.3
2022-09-07T19:24:39.362Z,18.3
2022-09-07T19:27:39.365Z,18.2
2022-09-07T19:30:39.358Z,18.2
2022-09-07T19:33:39.366Z,18.2
2022-09-07T19:36:39.395Z,18.1
2022-09-07T19:39:39.435Z,18.1
2022-09-07T19:42:39.388Z,18
2022-09-07T19:45:39.386Z,18
2022-09-07T19:48:39.391Z,17.9
2022-09-07T19:51:39.392Z,17.9
2022-09-07T19:54:39.420Z,17.9
2022-09-07T19:57:39.405Z,17.8
2022-09-07T20:00:39.453Z,17.7
2022-09-07T20:03:39.480Z,17.7
2022-09-07T20:06:39.412Z,17.6
2022-09-07T20:09:39.419Z,17.5
2022-09-07T20:12:39.447Z,17.5
2022-09-07T20:15:39.429Z,17.4
2022-09-07T20:18:39.442Z,17.4
2022-09-07T20:21:39.436Z,17.3
2022-09-07T20:24:39.446Z,17.3
2022-09-07T20:27:39.449Z,17.3
2022-09-07T20:30:39.547Z,17.4
2022-09-07T20:33:39.465Z,17.4
2022-09-07T20:36:39.469Z,17.4
2022-09-07T20:39:39.829Z,17.4
2022-09-07T20:42:39.486Z,17.4
2022-09-07T20:45:39.495Z,17.4
2022-09-07T20:48:39.511Z,17.3
2022-09-07T20:51:39.495Z,17.4
2022-09-07T20:54:39.500Z,17.4
2022-09-07T20:57:39.511Z,17.4
2022-09-07T21:00:39.540Z,17.4
2022-09-07T21:03:39.526Z,17.4
2022-09-07T21:06:39.548Z,17.4
2022-09-07T21:09:39.531Z,17.4
2022-09-07T21:12:39.542Z,17.3
2022-09-07T21:15:39.546Z,17.3
2022-09-07T21:18:39.551Z,17.4
2022-09-07T21:21:39.659Z,17.4
2022-09-07T21:24:39.595Z,17.4
2022-09-07T21:27:39.566Z,17.4
2022-09-07T21:30:39.583Z,17.4
2022-09-07T21:33:39.587Z,17.4
2022-09-07T21:36:39.597Z,17.4
2022-09-07T21:39:39.628Z,17.4
2022-09-07T21:42:39.631Z,17.4
2022-09-07T21:45:39.616Z,17.4
2022-09-07T21:48:39.623Z,17.4
2022-09-07T21:51:39.637Z,17.4
2022-09-07T21:54:39.640Z,17.4
2022-09-07T21:57:39.646Z,17.4
2022-09-07T22:00:39.705Z,17.4
2022-09-07T22:03:39.666Z,17.3
2022-09-07T22:06:39.673Z,17.3
2022-09-07T22:09:39.686Z,17.3
2022-09-07T22:12:39.686Z,17.3
2022-09-07T22:15:39.697Z,17.3
2022-09-07T22:18:40.822Z,17.3
2022-09-07T22:21:39.708Z,17.2
2022-09-07T22:24:39.720Z,17.2
2022-09-07T22:27:39.734Z,17.3
2022-09-07T22:30:39.739Z,17.2
2022-09-07T22:33:39.740Z,17.2
2022-09-07T22:36:39.782Z,17.2
2022-09-07T22:39:39.815Z,17.2
2022-09-07T22:42:39.774Z,17.3
2022-09-07T22:45:39.784Z,17.3
2022-09-07T22:48:39.796Z,17.2
2022-09-07T22:51:39.802Z,17.2
2022-09-07T22:54:39.836Z,17.2
2022-09-07T22:57:39.820Z,17.1
2022-09-07T23:00:39.840Z,17.1
2022-09-07T23:03:40.022Z,17
2022-09-07T23:06:39.851Z,17
2022-09-07T23:09:39.868Z,17
2022-09-07T23:12:39.906Z,17
2022-09-07T23:15:39.887Z,16.9
2022-09-07T23:18:39.903Z,17
2022-09-07T23:21:39.912Z,16.9
2022-09-07T23:24:39.919Z,16.9
2022-09-07T23:27:39.940Z,17
2022-09-07T23:30:39.984Z,17
2022-09-07T23:33:39.966Z,17
2022-09-07T23:36:39.977Z,17
2022-09-07T23:39:40.063Z,17
2022-09-07T23:42:40.001Z,17
2022-09-07T23:45:40.023Z,17
2022-09-07T23:48:40.046Z,17
2022-09-07T23:51:40.038Z,17
2022-09-07T23:54:40.056Z,17
2022-09-07T23:57:40.059Z,16.9
